Essex, IL (60935)

5:56 AM CDT on July 29, 2016 (GMT -0500)
Lake Shannon | | Change Station
Active Advisory: Special Statement

Elev 591 ft 41.15 °N, 88.23 °W | Updated 10 minutes ago

Scattered Clouds
Scattered Clouds
70.3 °F
Feels Like 70.3 °F
N
0.0
Wind Variable Wind from East

Today
High -- | Low -- °F
--% Chance of Precip.
Yesterday
High -- | Low -- °F
Precip. -- in
Pressure 29.92 in
Visibility 5.0 miles
Clouds Scattered Clouds 2700 ft
Dew Point 68 °F
Humidity 91%
Rainfall 0.00 in
Snow Depth Not available.
5:45 AM 8:11 PM
Waning Crescent, 23% visible
METAR KIKK 291035Z AUTO 00000KT 5SM BR SCT027 20/19 A2992 RMK AO2 T01960191
Pressure 29.92 in
Visibility 5.0 miles
Clouds Scattered Clouds 2700 ft
Dew Point 68 °F
Humidity 91%
Rainfall 0.00 in
Snow Depth Not available.
5:45 AM 8:11 PM
Waning Crescent, 23% visible
METAR KIKK 291035Z AUTO 00000KT 5SM BR SCT027 20/19 A2992 RMK AO2 T01960191

10-Day Weather Forecast

Almanac

Astronomy

Jul. 29, 2016 Rise Set
Actual Time
Civil Twilight
Nautical Twilight
Astronomical Twilight
Moon
Length of Visible Light
Length of Day
Tomorrow will be .
, % of the Moon is Illuminated

Today's Extremes

State Highs State Lows

Community

WunderPhotos

Upload Photos

1,928,311 photos uploaded!

WunderBlog® & News

Nearby

Air Quality

  Air Quality AQ Index Pollutant
Not available.

Snow Depth

Station Depth Elevation

Earthquake Activity

City Distance Mag. Time & Date
Minimum magnitude displayed is 2.5.

Coastal Water Temperatures

Place Temperature

Stations

Nearby Weather Stations

Station Location Temp. Windchill Dew Point Humidity Wind Precip. Elev Updated Type
                   

Watches & Warnings

Special Statement
Issued: 5:12 AM EDT Jul. 29, 2016 – National Weather Service

... Patchy dense fog this morning...

Fog with patchy dense fog has developed across portions of
northern Illinois and Northwest Indiana this morning. Travelers
should use caution as visibility may vary over short distances and
could fall to below one half mile at times. Fog will likely
dissipate around 8 am CDT today.


Rodriguez

412 am CDT Fri Jul 29 2016 /512 am EDT Fri Jul 29 2016/

... Patchy dense fog this morning...

Fog with patchy dense fog has developed across portions of
northern Illinois and Northwest Indiana this morning. Travelers
should use caution as visibility may vary over short distances and
could fall to below one half mile at times. Fog will likely
dissipate around 8 am CDT today.


Rodriguez